Dartmouth, MA (02714)

2:01 PM EST on January 27, 2015 (GMT -0500)
Okeomuset | Change Station
CLOSE
Current Station
Personal Weather Station
Location: South Dartmouth, MA
Elevation: 120 ft
Nearby Weather Stations
Active Advisory: Blizzard Warning Active Notice: Public Information Statement

Elev 120 ft 41.53 °N, 71.02 °W | Updated 11 seconds ago

Snow
Snow
16.9 °F
Feels Like 3 °F
N
13.5
Wind Variable Wind from NNW
Gusts 20.0 mph

Today
High -- | Low -- °F
--% Chance of Precip.
Yesterday
High -- | Low -- °F
Precip. -- in
7:00 AM 4:53 PM
First Quarter, 56% visible
Pressure 29.42 in
Visibility 0.5 miles
Clouds
Windchill 3 °F
Dew Point 18 °F
Humidity 96%
Rainfall 0.00 in
Snow Depth Not available.
UV Not available.
Pollen .10 out of 12
Air Quality Not available.
Flu Activity Not available.
METAR KEWB 271853Z AUTO 32014G21KT 1/2SM R05/2800V3500FT SN FZFG VV011 M08/M11 A2941 RMK AO2 SNB06 SLP961 P0000 T10831106 $

More Conditions Fewer Conditions

Pressure 29.42 in
Visibility 0.5 miles
Clouds
Windchill 3 °F
Dew Point 18 °F
Humidity 96%
Rainfall 0.00 in
Snow Depth Not available.
UV Not available.
Pollen .10 out of 12
Air Quality Not available.
Flu Activity Not available.
METAR KEWB 271853Z AUTO 32014G21KT 1/2SM R05/2800V3500FT SN FZFG VV011 M08/M11 A2941 RMK AO2 SNB06 SLP961 P0000 T10831106 $

More Conditions Fewer Conditions

10-Day Weather Forecast

Almanac

Astronomy

Jan. 27, 2015 Rise Set
Actual Time
Civil Twilight
Nautical Twilight
Astronomical Twilight
Moon
Length of Visible Light
Length of Day
Tomorrow will be .
, % of the Moon is Illuminated

Today's Extremes

State Highs State Lows

Community

WunderPhotos

Upload Photos

1,790,783 photos uploaded!

WunderBlogs® & News

Nearby

Air Quality

  Air Quality AQ Index Pollutant
Not available.

Snow Depth

Station Depth Elevation

Earthquake Activity

City Distance Mag. Time & Date
Minimum magnitude displayed is 2.5.

Coastal Water Temperatures

Place Temperature

Nearby Weather Stations